Latest Weather Observations for Lochington

IDQ60801

Issued at 5:32 pm EST Saturday 20 December 2014 (issued every 30 minutes, with the page automatically refreshed every 10 minutes)

About weather observations | Map of weather stations | Latest weather observations for QLD | Other Formats
Station Details ID: 035139 Name: LOCHINGTON Lat: -23.94 Lon: 147.53 Height: 267.19 m
Data from the previous 72 hours. | See also: Recent months at Lochington
Date/Time
EST
Temp
°C
App
Temp
°C
Dew
Point
Rel
Hum
%
Delta-T
°C
Wind Press
QNH
hPa
Press
MSL
hPa
Rain
since 9 am
mm
Dir
 
Spd
km/h
Gust
km/h
Spd
kts
Gust
kts
20/05:30pm 32.4 32.6 14.1 33 11.3 NE 6 9 3 5 1010.7 1008.9 0.0
20/05:00pm 32.6 33.2 14.2 32 11.4 S 4 7 2 4 1010.6 1008.8 0.0
20/04:30pm 32.8 32.6 12.9 29 12.0 NW 6 9 3 5 1010.5 1008.7 0.0
20/04:00pm 33.0 33.0 13.6 31 11.9 N 6 13 3 7 1010.5 1008.7 0.0
20/03:30pm 33.2 33.1 13.3 30 12.1 SE 6 15 3 8 1010.8 1009.0 0.0
20/03:00pm 33.0 33.7 14.6 33 11.4 NNW 4 9 2 5 1011.2 1009.4 0.0
20/02:30pm 32.8 32.7 13.9 31 11.6 ENE 7 17 4 9 1011.5 1009.7 0.0
20/02:00pm 32.5 32.0 13.7 32 11.5 N 9 15 5 8 1011.8 1010.0 0.0
20/01:30pm 32.0 31.9 13.2 31 11.4 ENE 6 9 3 5 1012.4 1010.5 0.0
20/01:00pm 32.0 31.5 13.7 33 11.2 NNW 9 19 5 10 1012.8 1011.0 0.0
20/12:30pm 31.7 33.0 17.2 42 9.3 ESE 6 15 3 8 1013.2 1011.4 0.0
20/12:00pm 31.2 32.0 16.4 41 9.4 NE 7 13 4 7 1013.8 1012.0 0.0
20/11:30am 30.5 31.6 16.5 43 8.9 N 6 11 3 6 1014.0 1012.2 0.0
20/11:00am 30.3 31.3 17.7 46 8.1 NNE 9 17 5 9 1014.4 1012.6 0.0
20/10:30am 29.9 31.0 18.0 48 7.7 NE 9 15 5 8 1014.7 1012.9 0.0
20/10:00am 29.4 30.0 17.6 49 7.6 NNE 11 19 6 10 1015.0 1013.2 0.0
20/09:30am 28.9 30.2 19.2 55 6.4 ENE 11 17 6 9 1015.0 1013.2 0.0
20/09:00am 28.1 30.2 19.3 58 5.8 NNE 7 13 4 7 1014.9 1013.1 0.0
20/08:30am 27.1 29.8 19.4 62 5.0 NNE 4 7 2 4 1014.8 1013.0 0.0
20/08:00am 26.7 30.3 20.5 69 4.1 NNE 2 4 1 2 1014.6 1012.8 0.0
20/07:30am 25.3 29.3 20.5 75 3.2 CALM 0 2 0 1 1014.5 1012.7 0.0
20/07:00am 24.6 28.9 21.1 81 2.3 CALM 0 0 0 0 1014.2 1012.4 0.0
20/06:30am 23.3 27.6 21.2 88 1.4 CALM 0 0 0 0 1013.7 1011.9 0.0
20/06:00am 22.2 26.0 21.0 93 0.8 SSE 2 4 1 2 1013.4 1011.6 0.0
20/05:30am 21.2 24.8 20.5 96 0.5 ESE 2 4 1 2 1012.9 1011.1 0.0
20/05:00am 21.3 25.3 20.5 95 0.5 CALM 0 0 0 0 1012.5 1010.6 0.0
20/04:30am 21.4 25.4 20.6 95 0.5 CALM 0 0 0 0 1012.4 1010.5 0.0
20/04:00am 21.6 25.6 20.6 94 0.7 CALM 0 0 0 0 1012.1 1010.3 0.0
20/03:30am 21.8 25.0 20.4 92 0.9 NE 4 6 2 3 1011.8 1010.0 0.0
20/03:00am 22.1 26.4 21.1 94 0.7 CALM 0 0 0 0 1011.9 1010.1 0.0
20/02:30am 22.1 26.3 20.9 93 0.8 CALM 0 0 0 0 1011.9 1010.1 0.0
20/02:00am 22.4 26.6 20.9 91 1.0 CALM 0 0 0 0 1011.8 1010.0 0.0
20/01:30am 23.1 26.2 21.4 90 1.1 ENE 7 9 4 5 1011.9 1010.1 0.0
20/01:00am 23.1 26.7 21.2 89 1.3 E 4 6 2 3 1012.3 1010.4 0.0
20/12:30am 23.1 26.8 20.8 87 1.5 E 2 4 1 2 1012.7 1010.9 0.0
20/12:00am 23.3 27.1 21.0 87 1.5 E 2 4 1 2 1013.0 1011.2 0.0
 
Date/Time
EST
Temp
°C
App
Temp
°C
Dew
Point
Rel
Hum
%
Delta-T
°C
Wind Press
QNH
hPa
Press
MSL
hPa
Rain
since 9 am
mm
Dir
 
Spd
km/h
Gust
km/h
Spd
kts
Gust
kts
19/11:30pm 23.8 27.9 20.7 83 2.0 CALM 0 0 0 0 1013.3 1011.5 0.0
19/11:00pm 24.2 28.5 21.1 83 2.1 CALM 0 0 0 0 1013.6 1011.8 0.0
19/10:30pm 24.8 29.2 21.3 81 2.3 CALM 0 0 0 0 1013.9 1012.1 0.0
19/10:00pm 24.5 29.0 21.6 84 1.9 CALM 0 0 0 0 1013.9 1012.1 0.0
19/09:30pm 24.9 28.6 21.4 81 2.3 NNW 4 6 2 3 1013.7 1011.9 0.0
19/09:00pm 25.2 29.0 21.7 81 2.3 N 4 6 2 3 1013.4 1011.6 0.0
19/08:30pm 25.5 28.9 21.6 79 2.6 N 6 7 3 4 1013.1 1011.3 0.0
19/08:00pm 25.9 29.1 21.6 77 2.9 N 7 7 4 4 1012.8 1011.0 0.0
19/07:30pm 26.9 30.1 21.2 71 3.8 NNE 6 6 3 3 1012.5 1010.6 0.0
19/07:00pm 27.6 30.4 20.4 65 4.8 NNE 6 6 3 3 1012.3 1010.4 0.0
19/06:30pm 28.7 31.2 19.9 59 5.8 N 6 9 3 5 1011.9 1010.1 0.0
19/06:00pm 29.0 31.1 19.0 54 6.5 NNE 6 9 3 5 1011.7 1009.9 0.0
19/05:30pm 29.8 32.7 19.8 55 6.6 NW 4 9 2 5 1011.5 1009.7 0.0
19/05:00pm 29.4 31.9 19.1 54 6.8 ENE 4 9 2 5 1011.3 1009.5 0.0
19/04:30pm 29.1 31.4 18.5 52 6.9 N 4 7 2 4 1011.4 1009.6 0.0
19/04:00pm 29.1 31.3 19.1 54 6.5 NE 6 9 3 5 1011.6 1009.8 0.0
19/03:30pm 28.9 31.0 18.9 54 6.5 WNW 6 9 3 5 1011.8 1010.0 0.0
19/03:00pm 29.3 31.8 19.9 57 6.2 WNW 6 9 3 5 1012.1 1010.3 0.0
19/02:30pm 27.9 30.4 19.1 58 5.7 N 4 6 2 3 1012.5 1010.6 0.0
19/02:00pm 27.8 30.0 19.6 61 5.4 N 7 15 4 8 1013.0 1011.2 0.0
19/01:30pm 28.2 31.4 21.2 65 4.7 WSW 6 11 3 6 1013.4 1011.6 0.0
19/01:00pm 26.6 29.3 20.2 68 4.2 WNW 6 9 3 5 1013.6 1011.8 0.0
19/12:30pm 26.1 28.9 20.4 71 3.8 NNW 6 11 3 6 1014.0 1012.2 0.0
19/12:00pm 25.4 27.9 19.8 71 3.7 NE 6 15 3 8 1014.3 1012.5 0.0
19/11:30am 25.1 27.9 19.7 72 3.5 NNW 4 7 2 4 1014.7 1012.9 0.0
19/11:00am 24.7 27.3 19.3 72 3.5 N 4 6 2 3 1015.1 1013.3 0.0
19/10:30am 23.4 25.9 19.1 77 2.8 NE 4 7 2 4 1015.0 1013.2 0.0
19/10:00am 22.7 24.9 19.1 80 2.3 NE 6 9 3 5 1015.1 1013.3 0.0
19/09:30am 22.4 24.5 19.0 81 2.2 E 6 9 3 5 1014.9 1013.1 0.0
19/09:00am 21.9 23.7 18.7 82 2.0 E 7 13 4 7 1015.0 1013.2 37.4
19/08:30am 21.5 23.5 19.2 87 1.5 E 7 13 4 7 1015.0 1013.2 37.4
19/08:00am 21.2 23.4 19.3 89 1.2 ESE 6 9 3 5 1014.7 1012.9 37.4
19/07:30am 21.0 23.2 19.1 89 1.2 SE 6 9 3 5 1014.4 1012.6 37.2
19/07:00am 21.0 23.1 18.9 88 1.3 SSE 6 9 3 5 1014.2 1012.4 37.0
19/06:30am 20.8 22.8 18.7 88 1.3 SSE 6 9 3 5 1013.8 1012.0 37.0
19/06:00am 20.8 22.7 18.9 89 1.2 SE 7 11 4 6 1013.3 1011.5 37.0
19/05:30am 20.9 22.9 19.2 90 1.1 SE 7 9 4 5 1013.0 1011.2 36.8
19/05:00am 21.1 23.2 19.4 90 1.1 ESE 7 13 4 7 1012.5 1010.6 36.8
19/04:30am 21.0 23.5 19.8 93 0.8 NE 6 7 3 4 1012.0 1010.2 36.8
19/04:00am 21.0 23.3 19.8 93 0.8 NE 7 11 4 6 1011.8 1010.0 36.8
19/03:30am 21.1 23.2 20.1 94 0.6 NE 9 13 5 7 1011.7 1009.9 36.8
19/03:00am 21.3 23.5 20.3 94 0.7 ENE 9 15 5 8 1011.6 1009.8 36.8
19/02:30am 21.6 24.8 20.6 94 0.7 NNE 4 9 2 5 1011.8 1010.0 36.8
19/02:00am 21.5 24.3 20.5 94 0.7 N 6 9 3 5 1011.9 1010.1 36.8
19/01:30am 21.3 24.0 20.3 94 0.7 NNW 6 7 3 4 1012.6 1010.8 36.8
19/01:00am 21.3 23.9 20.5 95 0.5 NNE 7 11 4 6 1013.0 1011.2 36.8
19/12:30am 21.1 22.9 20.4 96 0.5 ENE 11 15 6 8 1013.0 1011.2 36.6
19/12:00am 21.2 22.8 20.7 97 0.3 ENE 13 20 7 11 1013.1 1011.3 36.6
 
Date/Time
EST
Temp
°C
App
Temp
°C
Dew
Point
Rel
Hum
%
Delta-T
°C
Wind Press
QNH
hPa
Press
MSL
hPa
Rain
since 9 am
mm
Dir
 
Spd
km/h
Gust
km/h
Spd
kts
Gust
kts
18/11:30pm 21.2 23.1 20.5 96 0.5 E 11 19 6 10 1013.9 1012.1 36.6
18/11:00pm 20.6 22.5 19.8 95 0.5 S 9 15 5 8 1014.8 1013.0 35.8
18/10:30pm 20.4 21.7 19.2 93 0.8 SSW 11 20 6 11 1015.7 1013.9 35.0
18/10:00pm 20.5 21.8 19.3 93 0.8 WSW 11 20 6 11 1016.0 1014.3 34.6
18/09:30pm 20.6 22.2 19.9 96 0.5 W 11 20 6 11 1015.4 1013.6 33.0
18/09:00pm 20.6 21.8 19.8 95 0.5 S 13 24 7 13 1014.2 1012.4 30.8
18/08:30pm 21.1 20.5 19.7 92 0.9 NW 22 43 12 23 1015.2 1013.4 21.8
18/08:28pm 21.4 21.7 20.4 94 0.7 NNW 19 43 10 23 1015.4 1013.6 19.4
18/08:21pm 21.7 22.8 20.5 93 0.8 SW 15 35 8 19 1015.5 1013.7 12.4
18/08:00pm 22.2 22.5 20.8 92 0.9 SSW 20 35 11 19 1013.4 1011.6 10.6
18/07:30pm 23.4 25.0 22.2 93 0.8 SW 17 30 9 16 1012.3 1010.4 8.4
18/07:18pm 24.0 25.7 22.4 91 1.1 WNW 17 32 9 17 1013.0 1011.2 0.6
18/07:00pm 24.1 26.4 22.0 88 1.4 S 13 20 7 11 1010.9 1009.1 0.2
18/06:30pm 24.4 25.6 22.1 87 1.5 SSW 19 30 10 16 1010.5 1008.7 0.0
18/06:00pm 27.6 26.0 20.7 66 4.6 SSW 30 48 16 26 1009.7 1007.9 0.0
18/05:52pm 28.3 26.7 20.1 61 5.4 SSW 28 48 15 26 1009.5 1007.7 0.0
18/05:30pm 29.7 29.1 19.7 55 6.6 SSW 22 37 12 20 1008.0 1006.2 0.0
18/05:20pm 30.6 30.4 19.3 51 7.4 SSW 19 37 10 20 1007.5 1005.7 0.0
18/05:00pm 35.7 35.0 14.4 28 13.3 NW 11 17 6 9 1006.3 1004.5 0.0
18/04:30pm 36.1 35.3 13.0 25 14.2 NW 9 15 5 8 1006.0 1004.2 0.0
18/04:00pm 36.9 35.8 13.0 24 14.7 WNW 11 22 6 12 1006.0 1004.2 0.0
18/03:30pm 37.3 34.7 12.0 22 15.4 NW 17 26 9 14 1006.1 1004.3 0.0
18/03:00pm 38.0 34.6 11.1 20 16.2 WNW 20 28 11 15 1006.4 1004.6 0.0
18/02:30pm 37.4 33.0 9.1 18 16.5 NW 22 32 12 17 1006.7 1004.9 0.0
18/02:00pm 37.9 34.8 10.3 19 16.4 WNW 17 26 9 14 1007.1 1005.3 0.0
18/01:30pm 37.8 34.3 10.2 19 16.4 N 19 26 10 14 1007.6 1005.8 0.0
18/01:00pm 37.9 35.0 9.5 18 16.7 N 15 24 8 13 1008.2 1006.4 0.0
18/12:30pm 37.3 33.8 7.3 16 17.0 N 15 30 8 16 1008.7 1006.8 0.0
18/12:00pm 36.3 34.8 10.5 21 15.3 NNW 9 15 5 8 1009.1 1007.2 0.0
18/11:30am 35.5 34.6 12.5 25 14.0 NNE 9 17 5 9 1009.8 1008.0 0.0
18/11:00am 34.0 33.9 14.0 30 12.4 N 7 17 4 9 1010.2 1008.4 0.0
18/10:30am 33.3 33.1 15.8 35 11.1 N 11 19 6 10 1010.4 1008.6 0.0
18/10:00am 32.5 32.3 14.6 34 11.1 N 9 17 5 9 1010.6 1008.8 0.0
18/09:30am 31.9 31.4 15.8 38 10.1 NNE 13 24 7 13 1010.6 1008.8 0.0
18/09:00am 30.7 30.0 15.5 39 9.5 N 13 19 7 10 1010.8 1009.0 0.0
18/08:30am 29.9 30.9 18.7 51 7.3 NNE 11 17 6 9 1010.8 1009.0 0.0
18/08:00am 29.4 30.0 18.5 52 7.1 NNE 13 17 7 9 1010.6 1008.8 0.0
18/07:30am 28.1 29.0 18.5 56 6.2 NE 11 19 6 10 1010.8 1009.0 0.0
18/07:00am 27.4 28.8 17.8 55 6.1 E 7 11 4 6 1010.9 1009.1 0.0
18/06:30am 25.6 28.2 17.5 61 5.1 CALM 0 0 0 0 1010.9 1009.1 0.0
18/06:00am 24.2 26.5 18.6 71 3.6 E 4 6 2 3 1010.1 1008.3 0.0
18/05:30am 24.3 25.9 17.8 67 4.1 NNE 6 7 3 4 1010.0 1008.2 0.0
18/05:00am 24.9 26.2 17.6 64 4.6 ENE 7 13 4 7 1009.3 1007.5 0.0
18/04:30am 24.8 26.2 17.8 65 4.4 E 7 11 4 6 1008.6 1006.7 0.0
18/04:00am 25.4 26.6 17.3 61 5.1 E 7 13 4 7 1008.5 1006.6 0.0
18/03:30am 25.9 26.8 17.5 59 5.3 NE 9 11 5 6 1008.6 1006.7 0.0
18/03:00am 25.7 26.8 18.1 63 4.9 NE 9 15 5 8 1008.5 1006.6 0.0
18/02:30am 26.2 27.0 18.1 61 5.2 E 11 15 6 8 1008.4 1006.5 0.0
18/02:00am 25.3 27.4 19.0 68 4.1 ESE 6 7 3 4 1008.1 1006.3 0.0
18/01:30am 25.8 27.9 18.0 62 5.0 SW 4 6 2 3 1007.9 1006.1 0.0
18/01:00am 25.9 28.7 18.8 65 4.6 WSW 2 6 1 3 1008.1 1006.3 0.0
18/12:30am 25.8 28.1 18.5 64 4.7 SSW 4 7 2 4 1008.2 1006.4 0.0
18/12:00am 25.1 27.7 19.2 70 3.8 SW 4 6 2 3 1007.8 1006.0 0.0
 
Date/Time
EST
Temp
°C
App
Temp
°C
Dew
Point
Rel
Hum
%
Delta-T
°C
Wind Press
QNH
hPa
Press
MSL
hPa
Rain
since 9 am
mm
Dir
 
Spd
km/h
Gust
km/h
Spd
kts
Gust
kts
17/11:30pm 25.8 28.4 18.5 64 4.7 WSW 2 4 1 2 1008.2 1006.4 0.0
17/11:00pm 26.1 28.5 18.0 61 5.2 SSW 2 4 1 2 1008.4 1006.5 0.0
17/10:30pm 26.1 29.1 19.2 65 4.5 SW 2 6 1 3 1008.6 1006.7 0.0
17/10:00pm 27.6 30.1 17.2 53 6.6 CALM 0 0 0 0 1008.2 1006.4 0.0
17/09:30pm 27.7 30.3 18.4 57 6.0 W 2 4 1 2 1007.9 1006.1 0.0
17/09:00pm 29.3 30.4 16.5 46 8.1 NNE 6 6 3 3 1007.2 1005.4 0.0
17/08:30pm 29.0 29.9 15.2 43 8.5 SE 4 4 2 2 1007.1 1005.3 0.0
17/08:00pm 29.3 31.0 16.1 44 8.3 WNW 2 6 1 3 1006.7 1004.9 0.0
17/07:30pm 30.7 31.4 13.5 35 10.4 N 2 4 1 2 1006.4 1004.6 0.0
17/07:00pm 31.6 31.5 13.8 34 10.9 NNW 7 9 4 5 1005.8 1004.0 0.0
17/06:30pm 33.7 31.5 13.2 29 12.5 NW 17 26 9 14 1005.6 1003.7 0.0
17/06:00pm 34.7 32.4 13.0 27 13.3 NNW 17 22 9 12 1005.1 1003.2 0.0

Other Formats:

Comma delimited format used in spreadsheet applications
http://www.bom.gov.au/fwo/IDQ60801/IDQ60801.94399.axf

JavaScript Object Notation format (JSON) in row-major order
http://www.bom.gov.au/fwo/IDQ60801/IDQ60801.94399.json